Time;durP1;ratioP1;P1;durP2;ratioP2;P2;SDS_P1;SDS_P2;PMS_P1;PMS_P2;Temp;Humidity;BMP_temperature;BMP_pressure;BME280_temperature;BME280_humidity;BME280_pressure;Samples;Min_cycle;Max_cycle;Signal;HPM_P1;HPM_P2
2023/11/06 00:09:40;;;;;;;1.23;0.00;;;6.90;98.10;;;;;;25592841;23;20009;-48
2023/11/06 00:19:43;;;;;;;0.00;0.00;;;5.50;99.90;;;;;;25592007;23;20033;-48
2023/11/06 00:29:45;;;;;;;1.52;0.00;;;4.80;99.90;;;;;;25592970;23;20063;-52
2023/11/06 00:39:47;;;;;;;0.00;0.00;;;4.70;99.90;;;;;;25591793;23;20031;-50
2023/11/06 00:49:49;;;;;;;0.20;0.00;;;4.70;99.90;;;;;;25592351;23;20005;-52
2023/11/06 00:59:51;;;;;;;0.20;0.00;;;6.50;95.90;;;;;;25592391;23;20005;-49
2023/11/06 01:09:53;;;;;;;1.25;0.00;;;7.80;93.70;;;;;;25592323;23;20005;-52
2023/11/06 01:19:55;;;;;;;0.52;0.10;;;7.10;97.70;;;;;;25592957;23;20009;-48
2023/11/06 01:29:56;;;;;;;0.20;0.00;;;5.50;99.90;;;;;;25599468;23;20009;-52
2023/11/06 01:39:58;;;;;;;0.20;0.00;;;4.40;99.90;;;;;;25598956;23;20020;-52
2023/11/06 01:50:03;;;;;;;0.10;0.00;;;3.80;99.90;;;;;;25598748;23;20005;-49
2023/11/06 02:00:07;;;;;;;0.10;0.00;;;3.50;99.90;;;;;;25598093;23;20035;-51
2023/11/06 02:10:17;;;;;;;0.30;0.10;;;3.50;99.90;;;;;;25639031;23;20001;-50
2023/11/06 02:20:22;;;;;;;0.20;0.00;;;3.20;99.90;;;;;;25596686;23;20102;-50
2023/11/06 02:30:24;;;;;;;0.03;0.00;;;3.40;99.90;;;;;;25595768;23;20005;-51
2023/11/06 02:40:26;;;;;;;0.40;0.00;;;5.60;99.90;;;;;;25596609;23;20009;-51
2023/11/06 02:50:28;;;;;;;0.15;0.00;;;6.80;99.90;;;;;;25596206;23;20075;-50
2023/11/06 03:00:31;;;;;;;0.10;0.00;;;7.40;98.50;;;;;;25595796;23;20417;-47
2023/11/06 03:10:32;;;;;;;0.00;0.00;;;7.20;99.90;;;;;;25595081;23;20005;-52
2023/11/06 03:20:34;;;;;;;0.00;0.00;;;6.20;99.90;;;;;;25594621;23;20013;-50
2023/11/06 03:30:36;;;;;;;0.00;0.00;;;5.50;99.30;;;;;;25594198;23;20059;-51
2023/11/06 03:40:38;;;;;;;0.00;0.00;;;5.20;99.90;;;;;;25593459;23;20016;-51
2023/11/06 03:50:43;;;;;;;0.00;0.00;;;4.90;99.90;;;;;;25592610;23;20009;-52
2023/11/06 04:00:46;;;;;;;0.10;0.00;;;4.60;99.90;;;;;;25592589;23;20005;-52
2023/11/06 04:10:48;;;;;;;0.00;0.00;;;4.10;99.90;;;;;;25592752;23;20013;-50
2023/11/06 04:20:50;;;;;;;0.00;0.00;;;3.60;99.90;;;;;;25592208;23;20437;-52
2023/11/06 04:30:52;;;;;;;0.15;0.00;;;3.20;99.90;;;;;;25592196;23;20511;-48
2023/11/06 04:40:53;;;;;;;0.00;0.00;;;2.80;99.90;;;;;;25592120;23;20006;-50
2023/11/06 04:50:55;;;;;;;0.00;0.00;;;2.60;99.90;;;;;;25591836;23;20005;-51
2023/11/06 05:00:57;;;;;;;0.22;0.00;;;2.60;99.90;;;;;;25597797;23;20251;-50
2023/11/06 05:10:59;;;;;;;0.13;0.00;;;2.40;99.90;;;;;;25600941;23;20063;-50
2023/11/06 05:21:01;;;;;;;0.00;0.00;;;2.30;99.90;;;;;;25600997;23;20017;-49
2023/11/06 05:31:02;;;;;;;0.15;0.00;;;2.10;99.90;;;;;;25598751;23;20008;-52
2023/11/06 05:41:04;;;;;;;0.43;0.10;;;1.80;99.90;;;;;;25597889;23;20009;-51
2023/11/06 05:51:06;;;;;;;1.08;0.10;;;1.70;99.90;;;;;;25597842;23;20005;-49
2023/11/06 06:01:09;;;;;;;0.43;0.10;;;1.80;99.90;;;;;;25597683;23;20001;-49
2023/11/06 06:11:12;;;;;;;0.10;0.00;;;1.70;99.90;;;;;;25596745;23;20332;-46
2023/11/06 06:21:14;;;;;;;0.20;0.10;;;1.60;99.90;;;;;;25596307;23;20009;-49
2023/11/06 06:31:16;;;;;;;0.50;0.30;;;1.90;99.90;;;;;;25596539;23;20436;-60
2023/11/06 06:41:18;;;;;;;0.80;0.40;;;2.00;99.90;;;;;;25596053;23;20009;-52
2023/11/06 06:51:20;;;;;;;0.77;0.40;;;2.10;99.90;;;;;;25595417;23;20028;-49
2023/11/06 07:01:21;;;;;;;1.55;0.57;;;2.40;99.90;;;;;;25595222;23;20452;-48
2023/11/06 07:11:24;;;;;;;0.60;0.43;;;2.60;99.90;;;;;;25594964;23;20012;-49
2023/11/06 07:21:26;;;;;;;0.57;0.32;;;3.00;99.90;;;;;;25594073;23;20506;-50
2023/11/06 07:31:28;;;;;;;0.75;0.20;;;3.70;99.90;;;;;;25593446;23;20005;-52
2023/11/06 07:41:30;;;;;;;0.75;0.20;;;4.60;99.90;;;;;;25593634;23;20028;-50
2023/11/06 07:51:33;;;;;;;0.60;0.20;;;5.50;99.90;;;;;;25593716;23;20444;-53
2023/11/06 08:01:35;;;;;;;0.17;0.17;;;6.50;99.90;;;;;;25593089;23;20005;-52
2023/11/06 08:11:37;;;;;;;1.58;0.30;;;7.40;99.90;;;;;;25592863;23;20051;-50
2023/11/06 08:21:38;;;;;;;0.50;0.20;;;8.20;99.90;;;;;;25592504;23;20075;-49
2023/11/06 08:31:40;;;;;;;0.70;0.38;;;9.10;99.90;;;;;;25591992;23;20013;-50
2023/11/06 08:41:42;;;;;;;2.20;0.40;;;9.90;99.90;;;;;;25592084;23;20013;-58
2023/11/06 08:51:44;;;;;;;1.25;0.30;;;10.50;99.90;;;;;;25592026;23;20001;-57
2023/11/06 09:01:51;;;;;;;0.50;0.20;;;10.70;99.90;;;;;;25591538;23;20009;-57
2023/11/06 09:11:53;;;;;;;0.85;0.30;;;10.90;99.90;;;;;;25591641;23;20001;-57
2023/11/06 09:21:55;;;;;;;0.52;0.30;;;11.00;99.90;;;;;;25591090;23;20009;-57
2023/11/06 09:31:56;;;;;;;1.00;0.30;;;11.30;99.90;;;;;;25590093;23;20005;-56
2023/11/06 09:41:58;;;;;;;1.20;0.20;;;11.40;99.90;;;;;;25592420;23;20108;-57
2023/11/06 09:52:03;;;;;;;0.50;0.25;;;11.50;99.90;;;;;;25598311;23;20016;-57
2023/11/06 10:02:05;;;;;;;0.52;0.30;;;11.90;99.90;;;;;;25597054;23;20325;-54
2023/11/06 10:12:18;;;;;;;2.55;0.43;;;12.20;99.90;;;;;;25597215;23;20059;-57
2023/11/06 10:22:19;;;;;;;2.08;0.52;;;12.40;99.90;;;;;;25601111;23;20020;-57
2023/11/06 10:32:28;;;;;;;1.50;0.50;;;12.60;99.90;;;;;;25596489;23;20005;-56
2023/11/06 10:42:30;;;;;;;2.83;0.50;;;12.80;99.90;;;;;;25637244;23;20009;-57
2023/11/06 10:52:34;;;;;;;1.67;0.52;;;12.70;99.90;;;;;;25594135;23;20433;-57
2023/11/06 11:02:44;;;;;;;1.00;0.50;;;12.80;99.90;;;;;;25595198;23;20001;-57
2023/11/06 11:12:49;;;;;;;1.88;0.50;;;12.80;99.90;;;;;;25636175;23;20005;-57
2023/11/06 11:23:10;;;;;;;3.08;0.47;;;12.90;99.90;;;;;;25594045;23;20020;-51
2023/11/06 11:33:12;;;;;;;1.75;0.75;;;13.10;99.90;;;;;;25635191;23;20324;-58
2023/11/06 11:43:23;;;;;;;3.17;0.90;;;13.20;99.90;;;;;;25592861;23;20005;-58
2023/11/06 11:53:34;;;;;;;2.90;0.93;;;12.80;99.90;;;;;;25591778;23;20005;-58
2023/11/06 12:03:36;;;;;;;2.00;0.80;;;12.90;99.90;;;;;;25632782;23;20005;-58
2023/11/06 12:13:38;;;;;;;1.88;0.70;;;13.10;99.90;;;;;;25592497;23;20001;-51
2023/11/06 12:23:39;;;;;;;3.17;0.80;;;13.00;99.90;;;;;;25632176;23;20013;-51
2023/11/06 12:33:42;;;;;;;5.72;0.98;;;13.10;99.90;;;;;;25592735;23;20001;-50
2023/11/06 12:43:44;;;;;;;4.88;1.10;;;13.80;99.90;;;;;;25591913;23;20372;-59
2023/11/06 12:53:49;;;;;;;5.15;1.25;;;14.40;99.90;;;;;;25591905;23;20425;-59
2023/11/06 13:03:53;;;;;;;3.80;1.65;;;14.10;99.90;;;;;;25591720;23;20009;-59
2023/11/06 13:13:55;;;;;;;3.97;1.40;;;13.70;99.90;;;;;;25591358;23;20432;-59
2023/11/06 13:23:57;;;;;;;3.90;1.30;;;12.60;99.90;;;;;;25640299;23;20013;-59
2023/11/06 13:33:59;;;;;;;4.70;1.30;;;11.90;99.90;;;;;;25598988;23;20068;-58
2023/11/06 13:44:01;;;;;;;12.10;1.90;;;11.60;99.90;;;;;;25598550;23;20020;-50
2023/11/06 13:54:10;;;;;;;6.97;1.00;;;11.00;99.90;;;;;;25598336;23;20005;-58
2023/11/06 14:04:15;;;;;;;6.28;1.15;;;10.60;99.90;;;;;;25638896;23;20325;-58
2023/11/06 14:14:18;;;;;;;4.43;1.27;;;10.10;99.90;;;;;;25596917;23;20009;-57
2023/11/06 14:24:19;;;;;;;5.55;1.40;;;9.90;99.90;;;;;;25596297;23;20013;-58
2023/11/06 14:34:21;;;;;;;5.85;1.05;;;9.50;99.90;;;;;;25596380;23;20151;-59
2023/11/06 14:44:23;;;;;;;4.40;0.95;;;9.20;99.90;;;;;;25596190;23;20005;-56
2023/11/06 14:54:24;;;;;;;9.38;1.25;;;8.90;99.90;;;;;;25595644;23;20008;-51
2023/11/06 15:04:26;;;;;;;5.63;1.33;;;8.70;99.90;;;;;;25595416;23;20001;-57
2023/11/06 15:14:28;;;;;;;5.35;1.25;;;8.40;99.90;;;;;;25594805;23;20020;-58
2023/11/06 15:24:29;;;;;;;5.93;1.48;;;8.10;99.90;;;;;;25594557;23;20478;-57
2023/11/06 15:34:31;;;;;;;7.00;1.65;;;7.90;99.90;;;;;;25594132;23;20030;-58
2023/11/06 15:44:33;;;;;;;8.52;1.88;;;7.80;99.90;;;;;;25592649;23;20325;-58
2023/11/06 15:54:35;;;;;;;6.63;1.85;;;7.70;99.90;;;;;;25593693;23;20005;-51
2023/11/06 16:04:36;;;;;;;6.63;1.58;;;7.50;99.90;;;;;;25593162;23;20005;-58
2023/11/06 16:14:38;;;;;;;7.10;2.00;;;7.40;99.90;;;;;;25592928;23;20040;-58
2023/11/06 16:24:40;;;;;;;8.23;2.13;;;7.20;99.90;;;;;;25593316;23;20021;-57
2023/11/06 16:34:42;;;;;;;7.82;2.55;;;7.00;99.90;;;;;;25593319;23;20056;-47
2023/11/06 16:44:45;;;;;;;8.90;3.25;;;7.00;99.90;;;;;;25594168;23;20044;-50
2023/11/06 16:54:46;;;;;;;11.68;4.30;;;7.00;99.90;;;;;;25595810;23;20009;-58
2023/11/06 17:04:48;;;;;;;10.90;4.07;;;7.00;99.90;;;;;;25601142;23;20012;-50
2023/11/06 17:14:50;;;;;;;15.32;4.75;;;7.10;99.90;;;;;;25599964;23;20021;-58
2023/11/06 17:24:51;;;;;;;17.02;5.28;;;7.00;99.90;;;;;;25600310;23;20005;-58
2023/11/06 17:34:53;;;;;;;9.18;4.20;;;7.10;99.90;;;;;;25600005;23;20005;-48
2023/11/06 17:44:55;;;;;;;7.00;2.85;;;7.00;99.90;;;;;;25599293;23;20029;-50
2023/11/06 17:54:58;;;;;;;6.70;2.08;;;6.90;99.90;;;;;;25599040;23;20012;-59
2023/11/06 18:05:00;;;;;;;7.13;1.35;;;6.60;99.90;;;;;;25599144;23;20138;-58
2023/11/06 18:15:04;;;;;;;2.53;1.05;;;6.30;99.90;;;;;;25598094;23;20009;-58
2023/11/06 18:25:06;;;;;;;7.82;2.08;;;6.20;99.90;;;;;;25597644;23;20005;-59
2023/11/06 18:35:08;;;;;;;5.70;1.95;;;6.30;99.90;;;;;;25598984;23;20001;-49
2023/11/06 18:45:10;;;;;;;8.18;2.63;;;6.30;99.90;;;;;;25596604;23;20009;-49
2023/11/06 18:55:11;;;;;;;4.07;1.92;;;6.40;99.90;;;;;;25596744;23;20001;-52
2023/11/06 19:05:15;;;;;;;5.75;2.38;;;6.60;99.90;;;;;;25596520;23;20024;-58
2023/11/06 19:15:17;;;;;;;7.05;2.13;;;6.70;99.90;;;;;;25595162;23;20333;-50
2023/11/06 19:25:20;;;;;;;7.78;2.05;;;6.70;99.90;;;;;;25595422;23;20044;-49
2023/11/06 19:35:22;;;;;;;9.45;1.85;;;6.80;99.90;;;;;;25594455;23;20016;-47
2023/11/06 19:45:24;;;;;;;5.32;1.75;;;6.80;99.90;;;;;;25594404;23;20020;-48
2023/11/06 19:55:28;;;;;;;5.07;2.00;;;6.70;99.90;;;;;;25594230;23;20000;-50
2023/11/06 20:05:31;;;;;;;9.52;1.92;;;6.50;99.90;;;;;;25591240;23;20008;-47
2023/11/06 20:15:34;;;;;;;6.65;1.83;;;6.50;99.90;;;;;;25593172;23;20009;-51
2023/11/06 20:25:35;;;;;;;6.40;1.40;;;6.50;99.90;;;;;;25592752;23;20024;-47
2023/11/06 20:35:37;;;;;;;7.55;1.55;;;6.30;99.90;;;;;;25593097;23;20005;-50
2023/11/06 20:45:39;;;;;;;8.13;1.70;;;6.10;99.90;;;;;;25590849;23;20380;-48
2023/11/06 20:55:41;;;;;;;4.72;1.73;;;6.10;99.90;;;;;;25592488;23;20016;-51
2023/11/06 21:05:43;;;;;;;5.30;1.58;;;6.00;99.90;;;;;;25592298;23;20386;-48
2023/11/06 21:15:48;;;;;;;8.73;1.75;;;5.90;99.90;;;;;;25589949;23;20009;-50
2023/11/06 21:25:50;;;;;;;6.10;1.50;;;5.50;99.90;;;;;;25591096;23;20024;-50
2023/11/06 21:35:52;;;;;;;6.57;1.55;;;5.00;99.90;;;;;;25592402;23;20001;-51
2023/11/06 21:45:55;;;;;;;5.30;1.60;;;4.40;99.90;;;;;;25598970;23;20008;-50
2023/11/06 21:55:57;;;;;;;8.63;1.60;;;4.00;99.90;;;;;;25598174;23;20005;-49
2023/11/06 22:05:59;;;;;;;7.65;1.60;;;3.90;99.90;;;;;;25597502;23;20472;-49
2023/11/06 22:16:00;;;;;;;5.88;1.42;;;3.80;99.90;;;;;;25597697;23;20013;-47
2023/11/06 22:26:02;;;;;;;6.07;1.20;;;4.00;99.90;;;;;;25597377;23;20009;-50
2023/11/06 22:36:05;;;;;;;5.22;1.30;;;4.20;99.90;;;;;;25597512;23;20016;-48
2023/11/06 22:46:07;;;;;;;5.45;1.20;;;4.20;99.90;;;;;;25596713;23;20005;-50
2023/11/06 22:56:10;;;;;;;3.55;0.70;;;4.40;99.90;;;;;;25595995;23;20013;-51
2023/11/06 23:06:11;;;;;;;4.22;0.80;;;4.40;99.90;;;;;;25595761;23;20005;-49
2023/11/06 23:16:13;;;;;;;3.28;0.90;;;4.20;99.90;;;;;;25595483;23;20009;-50
2023/11/06 23:26:15;;;;;;;4.32;0.90;;;3.90;99.90;;;;;;25595063;23;20337;-49
2023/11/06 23:36:17;;;;;;;4.97;1.08;;;3.70;99.90;;;;;;25594890;23;20001;-48
2023/11/06 23:46:22;;;;;;;5.72;0.80;;;3.60;99.90;;;;;;25594230;23;20009;-49
2023/11/06 23:56:32;;;;;;;3.55;0.90;;;3.50;99.90;;;;;;25635304;23;20063;-51
